Time;durP1;ratioP1;P1;durP2;ratioP2;P2;SDS_P1;SDS_P2;PMS_P1;PMS_P2;Temp;Humidity;BMP_temperature;BMP_pressure;BME280_temperature;BME280_humidity;BME280_pressure;Samples;Min_cycle;Max_cycle;Signal;HPM_P1;HPM_P2
2021/12/29 00:00:27;;;;;;;22.92;7.03;;;6.90;99.90;;;;;;5063265;28;20396;-66
2021/12/29 00:02:54;;;;;;;24.00;7.43;;;6.90;99.90;;;;;;5062161;28;20431;-66
2021/12/29 00:05:20;;;;;;;23.90;7.20;;;6.90;99.90;;;;;;5063212;28;20040;-66
2021/12/29 00:07:45;;;;;;;29.83;7.07;;;6.90;99.90;;;;;;5065542;28;20688;-66
2021/12/29 00:10:12;;;;;;;27.50;7.20;;;6.90;99.90;;;;;;5062157;28;20515;-66
2021/12/29 00:12:41;;;;;;;19.55;6.22;;;6.90;99.90;;;;;;5065191;28;20033;-66
2021/12/29 00:15:11;;;;;;;16.83;6.00;;;6.80;99.90;;;;;;5064491;28;20101;-66
2021/12/29 00:17:39;;;;;;;28.80;7.25;;;6.90;99.90;;;;;;5060745;28;20051;-66
2021/12/29 00:20:06;;;;;;;30.95;6.95;;;6.90;99.90;;;;;;5062692;28;20754;-66
2021/12/29 00:22:31;;;;;;;22.20;6.18;;;6.80;99.90;;;;;;5065921;28;20488;-66
2021/12/29 00:24:57;;;;;;;28.80;7.22;;;6.90;99.90;;;;;;5060059;28;20041;-66
2021/12/29 00:27:23;;;;;;;23.98;7.10;;;6.90;99.90;;;;;;5062818;28;20127;-66
2021/12/29 00:29:49;;;;;;;34.35;7.13;;;6.90;99.90;;;;;;5061511;28;20049;-67
2021/12/29 00:32:14;;;;;;;17.83;5.43;;;6.90;99.90;;;;;;5064573;28;20097;-66
2021/12/29 00:34:40;;;;;;;26.65;7.22;;;6.90;99.90;;;;;;5062233;28;20403;-67
2021/12/29 00:37:06;;;;;;;31.95;7.82;;;6.90;99.90;;;;;;5066204;28;20055;-66
2021/12/29 00:39:31;;;;;;;23.88;6.82;;;6.90;99.90;;;;;;5068273;28;20044;-66
2021/12/29 00:41:57;;;;;;;36.47;7.35;;;6.90;99.90;;;;;;5063365;28;20043;-66
2021/12/29 00:44:23;;;;;;;30.67;7.22;;;6.90;99.90;;;;;;5069711;28;20053;-66
2021/12/29 00:46:53;;;;;;;25.75;7.28;;;6.90;99.90;;;;;;5049413;28;20481;-66
2021/12/29 00:49:19;;;;;;;40.65;8.63;;;6.90;99.90;;;;;;5064504;28;20080;-66
2021/12/29 00:51:45;;;;;;;43.17;10.02;;;6.90;99.90;;;;;;5066730;28;20468;-66
2021/12/29 00:54:11;;;;;;;45.42;10.20;;;6.90;99.90;;;;;;5062117;28;20179;-66
2021/12/29 00:56:38;;;;;;;45.25;9.48;;;7.00;99.90;;;;;;5064981;28;20109;-66
2021/12/29 00:59:04;;;;;;;49.03;9.70;;;7.00;99.90;;;;;;5066859;28;20040;-67
2021/12/29 01:01:30;;;;;;;47.45;9.73;;;7.00;99.90;;;;;;5063916;28;20078;-66
2021/12/29 01:03:56;;;;;;;45.17;10.00;;;7.00;99.90;;;;;;5062243;28;20435;-66
2021/12/29 01:06:22;;;;;;;61.33;11.50;;;7.00;99.90;;;;;;5062810;28;20389;-66
2021/12/29 01:08:48;;;;;;;115.38;14.00;;;7.00;99.90;;;;;;5066555;28;20047;-66
2021/12/29 01:11:14;;;;;;;93.93;14.27;;;7.00;99.90;;;;;;5066723;28;20377;-67
2021/12/29 01:13:46;;;;;;;84.68;13.57;;;7.00;99.90;;;;;;5070802;28;20044;-66
2021/12/29 01:16:36;;;;;;;82.15;13.68;;;7.00;99.90;;;;;;5060381;28;20119;-66
2021/12/29 01:19:06;;;;;;;89.50;14.15;;;7.00;99.90;;;;;;5062125;28;20584;-66
2021/12/29 01:21:33;;;;;;;117.78;16.10;;;7.00;99.90;;;;;;5064216;28;20462;-66
2021/12/29 01:24:00;;;;;;;120.07;15.55;;;7.00;99.90;;;;;;5067440;28;20531;-66
2021/12/29 01:26:26;;;;;;;136.18;17.17;;;7.10;99.90;;;;;;5059274;28;20123;-66
2021/12/29 01:28:52;;;;;;;128.15;16.58;;;7.00;99.90;;;;;;5061883;28;20129;-66
2021/12/29 01:31:17;;;;;;;140.80;17.30;;;7.00;99.90;;;;;;5059691;28;20056;-66
2021/12/29 01:33:43;;;;;;;173.85;19.52;;;7.00;99.90;;;;;;5064473;28;20535;-66
2021/12/29 01:36:09;;;;;;;116.40;17.48;;;7.10;99.90;;;;;;5060539;28;20393;-66
2021/12/29 01:38:35;;;;;;;150.57;19.42;;;7.10;99.90;;;;;;5061849;28;20032;-66
2021/12/29 01:41:01;;;;;;;144.88;18.48;;;7.10;99.90;;;;;;5059082;28;20083;-66
2021/12/29 01:43:26;;;;;;;126.03;17.17;;;7.10;99.90;;;;;;5064773;28;20053;-66
2021/12/29 01:45:52;;;;;;;124.88;16.92;;;7.10;99.90;;;;;;5064097;28;20049;-66
2021/12/29 01:48:19;;;;;;;131.25;17.05;;;7.10;99.90;;;;;;5059427;28;20083;-66
2021/12/29 01:50:49;;;;;;;139.73;16.88;;;7.10;99.90;;;;;;5067895;28;20045;-67
2021/12/29 01:53:23;;;;;;;120.95;16.10;;;7.10;99.90;;;;;;5060038;28;20053;-67
2021/12/29 01:55:50;;;;;;;125.55;16.35;;;7.10;99.90;;;;;;5062040;28;20044;-66
2021/12/29 01:58:16;;;;;;;135.40;15.65;;;7.10;99.90;;;;;;5064089;28;20051;-66
2021/12/29 02:00:43;;;;;;;132.70;16.33;;;7.10;99.90;;;;;;5062684;28;20132;-66
2021/12/29 02:03:09;;;;;;;92.28;14.50;;;7.10;99.90;;;;;;5065196;28;20044;-66
2021/12/29 02:05:36;;;;;;;110.13;13.63;;;7.10;99.90;;;;;;5070312;28;20028;-66
2021/12/29 02:08:04;;;;;;;126.82;14.73;;;7.10;99.90;;;;;;5062732;28;20068;-66
2021/12/29 02:10:32;;;;;;;96.03;13.32;;;7.10;99.90;;;;;;5062654;28;20377;-66
2021/12/29 02:12:59;;;;;;;119.20;12.82;;;7.10;99.90;;;;;;5067318;28;20036;-66
2021/12/29 02:15:25;;;;;;;136.32;15.13;;;7.10;99.90;;;;;;5064701;28;20514;-66
2021/12/29 02:17:50;;;;;;;142.10;15.15;;;7.10;99.90;;;;;;5065131;28;20040;-66
2021/12/29 02:20:19;;;;;;;139.25;14.88;;;7.10;99.90;;;;;;5058730;28;20400;-66
2021/12/29 02:22:49;;;;;;;159.15;15.05;;;7.10;99.90;;;;;;5060021;28;20032;-66
2021/12/29 02:27:47;;;;;;;119.03;14.63;;;7.10;99.90;;;;;;5062802;28;20564;-66
2021/12/29 02:30:16;;;;;;;109.72;13.32;;;7.10;99.90;;;;;;5063706;28;20036;-66
2021/12/29 02:32:42;;;;;;;91.45;12.95;;;7.10;99.90;;;;;;5065070;28;20104;-66
2021/12/29 02:35:08;;;;;;;91.57;13.85;;;7.10;99.90;;;;;;5065279;28;20071;-67
2021/12/29 02:37:34;;;;;;;77.38;12.90;;;7.10;99.90;;;;;;5065630;28;20044;-67
2021/12/29 02:39:59;;;;;;;74.38;12.45;;;7.10;99.90;;;;;;5062604;28;20039;-67
2021/12/29 02:42:28;;;;;;;73.45;12.07;;;7.20;99.90;;;;;;5062406;28;20044;-67
2021/12/29 02:44:55;;;;;;;68.32;11.27;;;7.10;99.90;;;;;;5063754;28;20154;-67
2021/12/29 02:47:21;;;;;;;61.78;12.43;;;7.20;99.90;;;;;;5065243;28;20560;-67
2021/12/29 02:49:47;;;;;;;67.32;12.23;;;7.20;99.90;;;;;;5060787;28;20412;-67
2021/12/29 02:52:14;;;;;;;60.45;12.65;;;7.20;99.90;;;;;;5063697;28;20033;-67
2021/12/29 02:54:41;;;;;;;67.18;13.35;;;7.20;99.90;;;;;;5062921;28;20526;-67
2021/12/29 02:57:07;;;;;;;68.30;13.82;;;7.20;99.90;;;;;;5065191;28;20044;-67
2021/12/29 02:59:33;;;;;;;71.07;14.75;;;7.30;99.90;;;;;;5066941;28;20033;-67
2021/12/29 03:01:59;;;;;;;77.85;15.88;;;7.30;99.90;;;;;;5065716;28;20113;-67
2021/12/29 03:04:25;;;;;;;76.85;16.95;;;7.30;99.90;;;;;;5064686;28;20078;-67
2021/12/29 03:06:51;;;;;;;89.40;17.75;;;7.30;99.90;;;;;;5060312;28;20044;-67
2021/12/29 03:09:17;;;;;;;101.32;19.02;;;7.30;99.90;;;;;;5062198;28;20040;-67
2021/12/29 03:11:44;;;;;;;113.05;19.83;;;7.30;99.90;;;;;;5064002;28;20404;-67
2021/12/29 03:14:11;;;;;;;106.75;19.83;;;7.30;99.90;;;;;;5068804;28;20037;-67
2021/12/29 03:16:39;;;;;;;112.50;20.95;;;7.30;99.90;;;;;;5058023;28;20483;-67
2021/12/29 03:19:05;;;;;;;120.72;22.00;;;7.30;99.90;;;;;;5059190;28;20083;-67
2021/12/29 03:21:34;;;;;;;137.32;22.27;;;7.30;99.90;;;;;;5058220;28;20037;-67
2021/12/29 03:24:00;;;;;;;147.57;24.50;;;7.40;99.90;;;;;;5058029;28;20120;-67
2021/12/29 03:26:26;;;;;;;131.48;23.52;;;7.40;99.90;;;;;;5063452;28;20033;-67
2021/12/29 03:28:53;;;;;;;122.82;23.98;;;7.40;99.90;;;;;;5063248;28;20040;-67
2021/12/29 03:31:21;;;;;;;110.90;24.73;;;7.40;99.90;;;;;;5060713;28;20480;-67
2021/12/29 03:33:48;;;;;;;113.95;24.10;;;7.40;99.90;;;;;;5060309;28;20044;-67
2021/12/29 03:36:16;;;;;;;103.90;23.10;;;7.50;99.90;;;;;;5058821;28;20518;-67
2021/12/29 03:38:42;;;;;;;202.18;30.05;;;7.50;99.90;;;;;;5057433;28;20415;-67
2021/12/29 03:41:10;;;;;;;73.38;20.80;;;7.50;99.90;;;;;;5063398;28;20060;-67
2021/12/29 03:43:38;;;;;;;81.65;22.48;;;7.50;99.90;;;;;;5058303;28;20053;-67
2021/12/29 03:46:05;;;;;;;89.22;22.23;;;7.40;99.90;;;;;;5057339;28;20116;-67
2021/12/29 03:48:32;;;;;;;81.88;20.40;;;7.50;99.90;;;;;;5063779;28;20048;-67
2021/12/29 03:50:59;;;;;;;86.93;21.63;;;7.50;99.90;;;;;;5057493;28;20434;-67
2021/12/29 03:53:27;;;;;;;75.85;20.33;;;7.50;99.90;;;;;;5062565;28;20044;-67
2021/12/29 03:55:53;;;;;;;80.53;19.85;;;7.50;99.90;;;;;;5062901;28;20041;-67
2021/12/29 03:58:20;;;;;;;117.18;23.35;;;7.50;99.90;;;;;;5060638;28;20140;-67
2021/12/29 04:00:48;;;;;;;72.65;18.60;;;7.50;99.90;;;;;;5057120;28;20037;-67
2021/12/29 04:03:14;;;;;;;59.70;19.38;;;7.50;99.90;;;;;;5061820;28;20047;-67
2021/12/29 04:05:40;;;;;;;65.95;19.70;;;7.50;99.90;;;;;;5058528;28;20424;-67
2021/12/29 04:08:06;;;;;;;75.43;20.90;;;7.50;99.90;;;;;;5064696;28;21275;-67
2021/12/29 04:10:32;;;;;;;52.72;19.48;;;7.50;99.90;;;;;;5056245;28;20512;-67
2021/12/29 04:12:59;;;;;;;45.20;18.40;;;7.50;99.90;;;;;;5062073;28;20056;-67
2021/12/29 04:15:25;;;;;;;62.35;19.67;;;7.50;99.90;;;;;;5061319;28;20040;-67
2021/12/29 04:17:57;;;;;;;63.85;19.45;;;7.50;99.90;;;;;;5062037;28;20032;-67
2021/12/29 04:23:16;;;;;;;116.38;24.75;;;7.50;99.90;;;;;;5059419;28;20519;-67
2021/12/29 04:25:53;;;;;;;60.42;19.48;;;7.60;99.90;;;;;;5064502;28;20111;-67
2021/12/29 04:28:32;;;;;;;56.45;17.95;;;7.50;99.90;;;;;;5060915;28;20075;-67
2021/12/29 04:31:12;;;;;;;52.58;17.30;;;7.50;99.90;;;;;;5059306;28;20070;-67
2021/12/29 04:33:50;;;;;;;58.00;17.65;;;7.50;99.90;;;;;;5058614;28;20047;-67
2021/12/29 04:36:27;;;;;;;46.08;16.40;;;7.50;99.90;;;;;;5061255;28;20055;-67
2021/12/29 04:39:06;;;;;;;51.83;17.05;;;7.50;99.90;;;;;;5066383;28;20052;-67
2021/12/29 04:41:37;;;;;;;52.88;17.13;;;7.50;99.90;;;;;;5061720;28;20650;-67
2021/12/29 04:44:03;;;;;;;52.63;17.73;;;7.40;99.90;;;;;;5061844;28;20076;-67
2021/12/29 04:46:36;;;;;;;57.67;18.15;;;7.50;99.90;;;;;;5056330;28;20124;-67
2021/12/29 04:49:03;;;;;;;83.37;20.70;;;7.50;99.90;;;;;;5055137;28;20460;-67
2021/12/29 04:51:35;;;;;;;50.65;17.55;;;7.50;99.90;;;;;;5062027;28;20090;-67
2021/12/29 04:54:06;;;;;;;51.38;18.05;;;7.60;99.90;;;;;;5061638;28;20044;-67
2021/12/29 04:56:33;;;;;;;64.40;19.80;;;7.50;99.90;;;;;;5064333;28;20456;-67
2021/12/29 04:58:59;;;;;;;65.18;18.23;;;7.50;99.90;;;;;;5062619;28;20041;-67
2021/12/29 05:01:25;;;;;;;68.28;19.48;;;7.50;99.90;;;;;;5061117;28;20040;-67
2021/12/29 05:03:50;;;;;;;47.78;16.65;;;7.50;99.90;;;;;;5063248;28;20237;-67
2021/12/29 05:09:00;;;;;;;70.43;20.52;;;7.50;99.90;;;;;;5056165;28;20515;-67
2021/12/29 05:11:26;;;;;;;53.97;18.70;;;7.50;99.90;;;;;;5059842;28;20127;-67
2021/12/29 05:13:52;;;;;;;81.57;21.83;;;7.50;99.90;;;;;;5060682;28;20049;-67
2021/12/29 05:16:18;;;;;;;77.57;20.92;;;7.50;99.90;;;;;;5060770;28;20477;-67
2021/12/29 05:18:45;;;;;;;78.72;20.70;;;7.50;99.90;;;;;;5065842;28;20049;-67
2021/12/29 05:21:11;;;;;;;74.93;21.98;;;7.50;99.90;;;;;;5065934;28;20078;-67
2021/12/29 05:23:37;;;;;;;66.90;20.73;;;7.50;99.90;;;;;;5060364;28;20036;-67
2021/12/29 05:26:04;;;;;;;69.00;21.35;;;7.50;99.90;;;;;;5064684;28;20072;-66
2021/12/29 05:28:29;;;;;;;62.78;20.38;;;7.50;99.90;;;;;;5065171;28;20084;-66
2021/12/29 05:30:55;;;;;;;67.45;21.58;;;7.40;99.90;;;;;;5062621;28;20063;-66
2021/12/29 05:33:22;;;;;;;60.33;20.88;;;7.40;99.90;;;;;;5060140;28;20046;-66
2021/12/29 05:35:48;;;;;;;78.18;22.30;;;7.50;99.90;;;;;;5065009;28;20041;-66
2021/12/29 05:38:13;;;;;;;71.10;23.42;;;7.40;99.90;;;;;;5062692;28;20550;-66
2021/12/29 05:40:39;;;;;;;63.80;22.20;;;7.50;99.90;;;;;;5060618;28;20041;-66
2021/12/29 05:43:05;;;;;;;71.22;23.63;;;7.40;99.90;;;;;;5056154;28;20131;-66
2021/12/29 05:45:31;;;;;;;73.18;22.33;;;7.50;99.90;;;;;;5064812;28;20052;-66
2021/12/29 05:47:57;;;;;;;71.80;22.10;;;7.40;99.90;;;;;;5059719;28;20047;-66
2021/12/29 05:50:26;;;;;;;61.42;21.77;;;7.40;99.90;;;;;;5058563;28;20048;-66
2021/12/29 05:52:52;;;;;;;74.70;22.38;;;7.40;99.90;;;;;;5064156;28;20048;-66
2021/12/29 05:55:17;;;;;;;69.38;23.00;;;7.40;99.90;;;;;;5061354;28;20041;-66
2021/12/29 05:57:44;;;;;;;69.25;22.95;;;7.50;99.90;;;;;;5065456;28;20421;-66
2021/12/29 06:00:13;;;;;;;65.35;20.80;;;7.40;99.90;;;;;;5057383;28;20073;-66
2021/12/29 06:02:39;;;;;;;128.43;27.35;;;7.50;99.90;;;;;;5062077;28;20029;-66
2021/12/29 06:05:06;;;;;;;83.25;22.02;;;7.50;99.90;;;;;;5060676;28;20055;-66
2021/12/29 06:07:33;;;;;;;70.45;22.55;;;7.40;99.90;;;;;;5062964;28;20068;-66
2021/12/29 06:10:00;;;;;;;54.05;19.70;;;7.50;99.90;;;;;;5067553;28;20036;-66
2021/12/29 06:12:25;;;;;;;79.60;22.33;;;7.40;99.90;;;;;;5063695;28;20496;-66
2021/12/29 06:14:51;;;;;;;80.07;20.50;;;7.50;99.90;;;;;;5058449;28;20041;-66
2021/12/29 06:17:18;;;;;;;56.05;18.40;;;7.50;99.90;;;;;;5062499;28;20132;-66
2021/12/29 06:19:44;;;;;;;58.75;18.65;;;7.50;99.90;;;;;;5062309;28;20508;-66
2021/12/29 06:22:10;;;;;;;69.30;18.85;;;7.50;99.90;;;;;;5059011;28;20119;-66
2021/12/29 06:24:41;;;;;;;66.95;19.63;;;7.50;99.90;;;;;;5059324;28;20120;-66
2021/12/29 06:27:07;;;;;;;69.18;18.88;;;7.50;99.90;;;;;;5065297;28;20098;-66
2021/12/29 06:29:33;;;;;;;64.05;18.05;;;7.50;99.90;;;;;;5065273;28;20044;-66
2021/12/29 06:32:00;;;;;;;58.53;18.55;;;7.50;99.90;;;;;;5063178;28;20083;-66
2021/12/29 06:34:26;;;;;;;70.05;19.38;;;7.60;99.90;;;;;;5059266;28;20495;-66
2021/12/29 06:36:52;;;;;;;76.53;20.65;;;7.50;99.90;;;;;;5059381;28;20028;-66
2021/12/29 06:39:17;;;;;;;61.20;19.98;;;7.60;99.90;;;;;;5062320;28;20120;-67
2021/12/29 06:41:44;;;;;;;89.55;22.05;;;7.60;99.90;;;;;;5062542;28;20041;-67
2021/12/29 06:44:10;;;;;;;81.35;20.15;;;7.50;99.90;;;;;;5060785;28;20045;-67
2021/12/29 06:46:36;;;;;;;78.15;21.63;;;7.50;99.90;;;;;;5053573;28;20382;-67
2021/12/29 06:49:03;;;;;;;88.18;21.23;;;7.50;99.90;;;;;;5067289;28;20043;-67
2021/12/29 06:51:29;;;;;;;76.68;21.40;;;7.60;99.90;;;;;;5057596;28;20408;-66
2021/12/29 06:53:55;;;;;;;76.47;21.52;;;7.50;99.90;;;;;;5060203;28;20404;-67
2021/12/29 06:56:20;;;;;;;107.70;23.02;;;7.60;99.90;;;;;;5055277;28;20140;-67
2021/12/29 06:58:46;;;;;;;124.00;23.95;;;7.50;99.90;;;;;;5067557;28;20036;-67
2021/12/29 07:01:13;;;;;;;82.93;21.75;;;7.50;99.90;;;;;;5060636;28;20049;-67
2021/12/29 07:03:39;;;;;;;96.78;22.58;;;7.60;99.90;;;;;;5062290;28;20049;-67
2021/12/29 07:06:05;;;;;;;91.50;21.52;;;7.60;99.90;;;;;;5067953;28;20032;-66
2021/12/29 07:08:31;;;;;;;102.55;22.52;;;7.50;99.90;;;;;;5058346;28;20052;-66
2021/12/29 07:10:57;;;;;;;74.28;19.92;;;7.60;99.90;;;;;;5062367;28;20032;-66
2021/12/29 07:13:23;;;;;;;101.20;21.80;;;7.60;99.90;;;;;;5067801;28;20115;-67
2021/12/29 07:15:48;;;;;;;97.05;20.92;;;7.70;99.90;;;;;;5061246;28;20051;-68
2021/12/29 07:18:14;;;;;;;122.63;23.73;;;7.60;99.90;;;;;;5060167;28;20028;-67
2021/12/29 07:20:42;;;;;;;105.28;22.50;;;7.60;99.90;;;;;;5067917;28;20051;-67
2021/12/29 07:23:08;;;;;;;114.25;21.98;;;7.60;99.90;;;;;;5057871;28;20041;-67
2021/12/29 07:25:34;;;;;;;117.75;22.75;;;7.60;99.90;;;;;;5062555;28;20047;-67
2021/12/29 07:28:00;;;;;;;103.97;21.45;;;7.60;99.90;;;;;;5066620;28;20035;-67
2021/12/29 07:30:26;;;;;;;119.13;23.08;;;7.60;99.90;;;;;;5061972;28;20480;-67
2021/12/29 07:32:51;;;;;;;88.95;19.65;;;7.60;99.90;;;;;;5061887;28;20039;-67
2021/12/29 07:35:17;;;;;;;114.00;22.52;;;7.70;99.90;;;;;;5062079;28;20116;-67
2021/12/29 07:37:43;;;;;;;74.82;19.25;;;7.60;99.90;;;;;;5066459;28;20109;-66
2021/12/29 07:40:09;;;;;;;116.18;21.55;;;7.70;99.90;;;;;;5064364;28;20036;-66
2021/12/29 07:42:38;;;;;;;95.93;20.65;;;7.70;99.90;;;;;;5057958;28;20056;-66
2021/12/29 07:45:07;;;;;;;82.65;18.40;;;7.70;99.90;;;;;;5059155;28;20132;-66
2021/12/29 07:47:44;;;;;;;86.38;19.95;;;7.70;99.90;;;;;;5064956;28;20076;-66
2021/12/29 07:50:11;;;;;;;85.25;18.85;;;7.70;99.90;;;;;;5063576;28;20078;-67
2021/12/29 07:52:37;;;;;;;65.90;18.75;;;7.70;99.90;;;;;;5063145;28;20041;-67
2021/12/29 07:55:03;;;;;;;79.40;19.48;;;7.70;99.90;;;;;;5059935;28;20048;-67
2021/12/29 07:57:29;;;;;;;65.13;18.30;;;7.70;99.90;;;;;;5060336;28;20500;-67
2021/12/29 07:59:54;;;;;;;100.80;20.42;;;7.80;99.90;;;;;;5059331;28;20068;-67
2021/12/29 08:02:27;;;;;;;73.43;18.50;;;7.70;99.90;;;;;;5057930;28;20095;-67
2021/12/29 08:04:55;;;;;;;65.50;17.38;;;7.70;99.90;;;;;;5061873;28;20136;-67
2021/12/29 08:07:22;;;;;;;70.10;17.08;;;7.70;99.90;;;;;;5060966;28;20389;-67
2021/12/29 08:09:48;;;;;;;83.65;18.50;;;7.70;99.90;;;;;;5057432;28;20079;-67
2021/12/29 08:12:13;;;;;;;64.88;17.08;;;7.70;99.90;;;;;;5061167;28;20331;-67
2021/12/29 08:14:39;;;;;;;67.13;17.35;;;7.70;99.90;;;;;;5062280;28;20115;-67
2021/12/29 08:17:05;;;;;;;72.97;17.67;;;7.70;99.90;;;;;;5055531;28;20469;-67
2021/12/29 08:19:31;;;;;;;90.15;18.23;;;7.80;99.90;;;;;;5063159;28;20100;-66
2021/12/29 08:21:57;;;;;;;89.93;18.33;;;7.80;99.90;;;;;;5066015;28;20039;-66
2021/12/29 08:24:22;;;;;;;84.28;18.85;;;7.80;99.90;;;;;;5064512;28;20041;-66
2021/12/29 08:26:48;;;;;;;87.72;18.55;;;7.80;99.90;;;;;;5057981;28;20550;-66
2021/12/29 08:29:14;;;;;;;64.10;15.93;;;7.90;99.90;;;;;;5066926;28;20024;-66
2021/12/29 08:31:39;;;;;;;68.18;16.52;;;7.90;99.90;;;;;;5059403;28;20091;-66
2021/12/29 08:34:05;;;;;;;65.22;15.82;;;8.00;99.90;;;;;;5055674;28;20063;-66
2021/12/29 08:36:31;;;;;;;63.80;15.25;;;8.00;99.90;;;;;;5064901;28;20131;-67
2021/12/29 08:38:56;;;;;;;55.33;14.20;;;7.90;99.90;;;;;;5065011;28;20044;-67
2021/12/29 08:41:22;;;;;;;46.63;13.70;;;7.90;99.90;;;;;;5056470;28;20449;-67
2021/12/29 08:43:48;;;;;;;56.22;14.02;;;8.00;99.90;;;;;;5056057;28;20094;-67
2021/12/29 08:46:16;;;;;;;67.55;15.27;;;8.00;99.90;;;;;;5062271;28;20044;-67
2021/12/29 08:48:42;;;;;;;52.53;12.95;;;8.00;99.90;;;;;;5055761;28;20045;-67
2021/12/29 08:51:09;;;;;;;63.58;15.07;;;8.10;99.90;;;;;;5055686;28;20032;-67
2021/12/29 08:53:35;;;;;;;64.50;14.65;;;8.00;99.90;;;;;;5054377;28;20124;-67
2021/12/29 08:56:01;;;;;;;63.33;14.15;;;8.10;99.90;;;;;;5060082;28;20033;-66
2021/12/29 08:58:27;;;;;;;67.05;15.27;;;8.10;99.90;;;;;;5061773;28;20025;-67
2021/12/29 09:00:55;;;;;;;113.38;18.50;;;8.10;99.90;;;;;;5069743;28;20040;-67
2021/12/29 09:03:21;;;;;;;79.30;16.40;;;8.10;99.90;;;;;;5066104;28;20036;-67
2021/12/29 09:05:47;;;;;;;90.22;17.83;;;8.10;99.90;;;;;;5059478;28;20043;-67
2021/12/29 09:08:13;;;;;;;75.00;15.73;;;8.10;99.90;;;;;;5068398;28;20058;-67
2021/12/29 09:10:39;;;;;;;110.40;18.00;;;8.10;99.90;;;;;;5063713;28;20112;-67
2021/12/29 09:13:05;;;;;;;101.13;17.00;;;8.20;99.90;;;;;;5061337;28;20037;-67
2021/12/29 09:15:31;;;;;;;63.53;15.05;;;8.20;99.90;;;;;;5065846;28;20115;-67
2021/12/29 09:17:59;;;;;;;53.90;13.93;;;8.20;99.90;;;;;;5062115;28;20493;-67
2021/12/29 09:20:29;;;;;;;46.38;12.32;;;8.20;99.90;;;;;;5064770;28;20044;-67
2021/12/29 09:23:06;;;;;;;49.55;13.35;;;8.30;99.90;;;;;;5060963;28;20153;-67
2021/12/29 09:25:33;;;;;;;37.28;11.23;;;8.20;99.90;;;;;;5065273;28;20140;-67
2021/12/29 09:27:59;;;;;;;34.92;11.25;;;8.20;99.90;;;;;;5061933;28;20063;-67
2021/12/29 09:30:28;;;;;;;37.58;10.52;;;8.20;99.90;;;;;;5065065;28;20064;-67
2021/12/29 09:32:54;;;;;;;38.45;10.65;;;8.30;99.90;;;;;;5063574;28;20036;-67
2021/12/29 09:35:21;;;;;;;27.00;9.13;;;8.20;99.90;;;;;;5068574;28;20086;-67
2021/12/29 09:37:48;;;;;;;29.33;9.55;;;8.20;99.90;;;;;;5061422;28;20033;-67
2021/12/29 09:40:15;;;;;;;34.50;10.52;;;8.20;99.90;;;;;;5065309;28;20036;-67
2021/12/29 09:42:41;;;;;;;36.25;9.77;;;8.30;99.90;;;;;;5060290;28;20033;-67
2021/12/29 09:45:08;;;;;;;37.55;10.77;;;8.30;99.90;;;;;;5058617;28;20045;-67
2021/12/29 09:47:35;;;;;;;34.05;11.07;;;8.30;99.90;;;;;;5059247;28;20361;-67
2021/12/29 09:50:04;;;;;;;40.85;12.30;;;8.30;99.90;;;;;;5063157;28;20473;-67
2021/12/29 09:52:33;;;;;;;36.78;11.73;;;8.30;99.90;;;;;;5059437;28;20165;-67
2021/12/29 09:55:06;;;;;;;49.53;12.70;;;8.40;99.90;;;;;;5063442;28;20135;-67
2021/12/29 09:57:34;;;;;;;35.60;11.63;;;8.40;99.90;;;;;;5068208;28;20090;-67
2021/12/29 10:00:01;;;;;;;40.45;12.23;;;8.40;99.90;;;;;;5059047;28;20134;-67
2021/12/29 10:02:27;;;;;;;30.35;12.57;;;8.40;99.90;;;;;;5066333;28;20403;-67
2021/12/29 10:04:56;;;;;;;44.03;13.68;;;8.50;99.90;;;;;;5066185;28;20097;-67
2021/12/29 10:07:22;;;;;;;37.78;12.57;;;8.50;99.90;;;;;;5059797;28;20045;-67
2021/12/29 10:09:48;;;;;;;46.97;14.25;;;8.60;99.90;;;;;;5065379;28;20492;-67
2021/12/29 10:12:19;;;;;;;36.55;13.45;;;8.60;99.90;;;;;;5058527;28;20036;-67
2021/12/29 10:14:51;;;;;;;39.03;13.60;;;8.60;99.90;;;;;;5060838;28;20049;-67
2021/12/29 10:17:17;;;;;;;36.60;12.70;;;8.70;99.90;;;;;;5061685;28;20039;-67
2021/12/29 10:19:43;;;;;;;34.92;12.23;;;8.70;99.90;;;;;;5057818;28;20489;-67
2021/12/29 10:22:19;;;;;;;30.83;12.68;;;8.70;99.90;;;;;;5061283;28;20044;-67
2021/12/29 10:24:45;;;;;;;34.75;12.35;;;8.80;99.90;;;;;;5063429;28;20041;-67
2021/12/29 10:27:18;;;;;;;39.45;13.88;;;8.80;99.90;;;;;;5069809;28;20128;-67
2021/12/29 10:29:44;;;;;;;37.67;12.55;;;8.80;99.90;;;;;;5059276;28;20107;-67
2021/12/29 10:32:09;;;;;;;23.63;10.23;;;8.80;99.90;;;;;;5064208;28;20044;-67
2021/12/29 10:34:35;;;;;;;30.08;11.38;;;8.70;99.90;;;;;;5063945;28;20059;-67
2021/12/29 10:37:08;;;;;;;31.25;11.27;;;8.70;99.90;;;;;;5061091;28;20440;-67
2021/12/29 10:39:39;;;;;;;33.17;10.98;;;8.80;99.90;;;;;;5064513;28;20029;-67
2021/12/29 10:42:19;;;;;;;25.95;10.50;;;8.70;99.90;;;;;;5063584;28;20336;-67
2021/12/29 10:45:00;;;;;;;30.00;9.52;;;8.70;99.90;;;;;;5062676;28;20048;-67
2021/12/29 10:47:28;;;;;;;34.72;10.57;;;8.70;99.90;;;;;;5059059;28;20120;-67
2021/12/29 10:50:10;;;;;;;38.22;10.38;;;8.70;99.90;;;;;;5066898;28;20120;-67
2021/12/29 10:52:42;;;;;;;27.35;9.45;;;8.70;99.90;;;;;;5064441;28;20052;-67
2021/12/29 10:55:18;;;;;;;28.40;8.75;;;8.70;99.90;;;;;;5061056;28;20063;-66
2021/12/29 10:57:46;;;;;;;30.00;8.98;;;8.70;99.90;;;;;;5055588;28;20063;-66
2021/12/29 11:00:19;;;;;;;31.55;9.15;;;8.70;99.90;;;;;;5056895;28;20087;-67
2021/12/29 11:02:46;;;;;;;26.52;9.05;;;8.70;99.90;;;;;;5059560;28;20112;-67
2021/12/29 11:05:12;;;;;;;29.23;10.05;;;8.80;99.90;;;;;;5064057;28;20071;-67
2021/12/29 11:07:40;;;;;;;37.03;9.05;;;8.80;99.90;;;;;;5061916;28;20060;-67
2021/12/29 11:10:13;;;;;;;31.70;9.52;;;8.90;99.90;;;;;;5053992;28;20072;-67
2021/12/29 11:12:51;;;;;;;34.47;9.20;;;8.90;99.90;;;;;;5060506;28;20116;-67
2021/12/29 11:15:19;;;;;;;30.58;8.68;;;8.90;99.90;;;;;;5061554;28;20127;-67
2021/12/29 11:17:45;;;;;;;30.33;8.82;;;8.90;99.90;;;;;;5059944;28;20445;-67
2021/12/29 11:20:19;;;;;;;29.60;8.70;;;9.00;99.90;;;;;;5060624;28;20044;-67
2021/12/29 11:22:45;;;;;;;27.85;8.40;;;9.00;99.90;;;;;;5057619;28;20041;-67
2021/12/29 11:25:10;;;;;;;32.78;8.02;;;9.10;99.90;;;;;;5054816;28;20080;-67
2021/12/29 11:27:38;;;;;;;22.75;7.60;;;9.10;99.90;;;;;;5058188;28;20064;-67
2021/12/29 11:30:07;;;;;;;24.75;7.47;;;9.20;99.90;;;;;;5057968;28;20098;-67
2021/12/29 11:32:44;;;;;;;30.88;7.15;;;9.20;99.90;;;;;;5061416;28;20093;-67
2021/12/29 11:35:16;;;;;;;23.45;5.78;;;9.20;99.90;;;;;;5060287;28;20123;-67
2021/12/29 11:37:51;;;;;;;20.85;6.13;;;9.20;99.90;;;;;;5066535;28;20044;-67
2021/12/29 11:40:19;;;;;;;24.88;5.68;;;9.20;99.90;;;;;;5065107;28;20060;-66
2021/12/29 11:42:45;;;;;;;20.58;5.80;;;9.20;99.90;;;;;;5062455;28;20115;-66
2021/12/29 11:45:12;;;;;;;30.45;7.28;;;9.20;99.90;;;;;;5054757;28;20140;-67
2021/12/29 11:47:38;;;;;;;31.70;6.18;;;9.20;99.90;;;;;;5060378;28;20041;-67
2021/12/29 11:50:05;;;;;;;26.10;6.10;;;9.10;99.90;;;;;;5058492;28;20037;-66
2021/12/29 11:52:59;;;;;;;22.83;5.20;;;9.10;99.90;;;;;;5061835;28;20041;-66
2021/12/29 11:55:32;;;;;;;21.42;5.90;;;9.10;99.90;;;;;;5061671;28;20067;-67
2021/12/29 11:58:12;;;;;;;21.25;5.70;;;9.00;99.90;;;;;;5058792;28;20442;-67
2021/12/29 12:00:38;;;;;;;21.10;6.07;;;9.00;99.90;;;;;;5060500;28;20053;-67
2021/12/29 12:03:11;;;;;;;26.50;6.60;;;9.00;99.90;;;;;;5057484;28;20044;-67
2021/12/29 12:05:43;;;;;;;27.60;10.82;;;9.00;99.90;;;;;;5064771;28;20049;-67
2021/12/29 12:08:12;;;;;;;27.85;9.30;;;9.00;99.90;;;;;;5063123;28;20124;-67
2021/12/29 12:10:39;;;;;;;26.50;8.93;;;9.00;99.90;;;;;;5064730;28;20121;-67
2021/12/29 12:13:27;;;;;;;28.17;7.18;;;8.90;99.90;;;;;;5058472;28;20138;-67
2021/12/29 12:16:13;;;;;;;21.77;5.95;;;8.90;99.90;;;;;;5066369;28;20496;-67
2021/12/29 12:18:56;;;;;;;24.08;6.75;;;8.90;99.90;;;;;;5058595;28;20049;-65
2021/12/29 12:21:28;;;;;;;27.15;6.78;;;8.80;99.90;;;;;;5058652;28;20135;-64
2021/12/29 12:23:55;;;;;;;32.13;7.38;;;8.90;99.90;;;;;;5062140;28;20082;-64
2021/12/29 12:26:25;;;;;;;25.55;7.15;;;8.80;99.90;;;;;;5064519;28;20048;-64
2021/12/29 12:28:52;;;;;;;21.75;7.28;;;8.80;99.90;;;;;;5056192;28;20094;-64
2021/12/29 12:31:26;;;;;;;30.30;8.10;;;8.80;99.90;;;;;;5065094;28;20049;-64
2021/12/29 12:34:05;;;;;;;22.73;7.93;;;8.80;99.90;;;;;;5058217;28;20055;-64
2021/12/29 12:36:32;;;;;;;24.92;8.27;;;8.80;99.90;;;;;;5066468;28;20093;-64
2021/12/29 12:39:13;;;;;;;24.48;8.35;;;8.70;99.90;;;;;;5066058;28;20036;-63
2021/12/29 12:41:43;;;;;;;29.52;9.10;;;8.70;99.90;;;;;;5047501;28;20538;-64
2021/12/29 12:44:09;;;;;;;27.92;8.85;;;8.70;99.90;;;;;;5064101;28;20393;-64
2021/12/29 12:46:41;;;;;;;24.80;8.02;;;8.70;99.90;;;;;;5063922;28;20102;-64
2021/12/29 12:49:28;;;;;;;22.27;7.60;;;8.70;99.90;;;;;;5063724;28;20040;-64